createdAt,value
2022-11-12T00:00:02.840Z,53.94
2022-11-12T00:05:04.819Z,52.70
2022-11-12T00:10:06.634Z,55.36
2022-11-12T00:15:08.941Z,55.11
2022-11-12T00:20:11.281Z,55.95
2022-11-12T00:25:13.075Z,51.81
2022-11-12T00:30:14.712Z,52.00
2022-11-12T00:35:16.382Z,53.82
2022-11-12T00:40:18.006Z,55.56
2022-11-12T00:45:20.487Z,54.29
2022-11-12T00:50:22.246Z,53.82
2022-11-12T00:55:23.852Z,53.84
2022-11-12T01:00:26.015Z,55.87
2022-11-12T01:05:27.623Z,55.89
2022-11-12T01:10:29.255Z,56.70
2022-11-12T01:15:30.878Z,56.13
2022-11-12T01:20:32.472Z,57.04
2022-11-12T01:25:34.070Z,56.27
2022-11-12T01:30:35.727Z,59.55
2022-11-12T01:35:37.323Z,56.24
2022-11-12T01:40:39.017Z,55.28
2022-11-12T01:45:45.357Z,57.73
2022-11-12T01:50:47.142Z,55.05
2022-11-12T01:55:49.714Z,54.26
2022-11-12T02:00:51.946Z,54.28
2022-11-12T02:06:03.099Z,56.84
2022-11-12T02:11:17.875Z,57.35
2022-11-12T02:16:19.655Z,55.97
2022-11-12T02:21:22.759Z,57.77
2022-11-12T02:26:25.120Z,56.86
2022-11-12T02:31:26.714Z,57.60
2022-11-12T02:36:29.028Z,55.39
2022-11-12T02:41:31.089Z,53.76
2022-11-12T02:46:32.739Z,54.30
2022-11-12T02:51:34.342Z,54.00
2022-11-12T02:56:35.942Z,53.57
2022-11-12T03:01:37.574Z,52.78
2022-11-12T03:06:39.681Z,55.57
2022-11-12T03:11:41.428Z,54.97
2022-11-12T03:16:43.078Z,56.13
2022-11-12T03:21:44.680Z,54.93
2022-11-12T03:26:46.287Z,56.51
2022-11-12T03:31:47.890Z,54.28
2022-11-12T03:36:49.774Z,53.11
2022-11-12T03:41:51.409Z,56.08
2022-11-12T03:46:53.039Z,57.66
2022-11-12T03:51:54.632Z,55.15
2022-11-12T03:56:56.264Z,54.73
2022-11-12T04:01:57.872Z,54.38
2022-11-12T04:07:18.353Z,53.46
2022-11-12T04:12:38.881Z,57.01
2022-11-12T04:17:59.007Z,58.28
2022-11-12T04:23:00.642Z,55.23
2022-11-12T04:28:02.253Z,57.99
2022-11-12T04:33:03.997Z,56.25
2022-11-12T04:38:05.604Z,57.32
2022-11-12T04:43:29.971Z,53.75
2022-11-12T04:48:32.142Z,52.50
2022-11-12T04:53:33.748Z,55.72
2022-11-12T04:58:35.367Z,57.25
2022-11-12T05:03:38.232Z,54.49
2022-11-12T05:08:39.830Z,54.61
2022-11-12T05:13:41.463Z,56.44
2022-11-12T05:18:43.054Z,56.50
2022-11-12T05:23:44.653Z,57.39
2022-11-12T05:28:46.304Z,55.63
2022-11-12T05:33:47.905Z,57.24
2022-11-12T05:38:49.512Z,58.12
2022-11-12T05:43:51.205Z,57.88
2022-11-12T05:48:52.832Z,56.50
2022-11-12T05:53:54.456Z,55.89
2022-11-12T05:58:56.302Z,55.30
2022-11-12T06:03:57.922Z,54.97
2022-11-12T06:08:59.608Z,56.78
2022-11-12T06:14:02.437Z,55.91
2022-11-12T06:19:04.984Z,56.53
2022-11-12T06:24:06.703Z,59.21
2022-11-12T06:29:08.329Z,57.87
2022-11-12T06:34:10.032Z,58.89
2022-11-12T06:39:12.074Z,59.55
2022-11-12T06:44:16.583Z,60.64
2022-11-12T06:49:22.398Z,59.78
2022-11-12T06:54:24.346Z,57.31
2022-11-12T06:59:25.934Z,57.54
2022-11-12T07:04:27.668Z,57.28
2022-11-12T07:09:29.228Z,57.33
2022-11-12T07:14:30.779Z,58.29
2022-11-12T07:19:32.413Z,54.27
2022-11-12T07:24:34.035Z,57.61
2022-11-12T07:29:47.630Z,58.91
2022-11-12T07:34:50.339Z,57.50
2022-11-12T07:39:51.919Z,54.40
2022-11-12T07:44:53.462Z,54.27
2022-11-12T07:49:55.176Z,56.33
2022-11-12T07:54:56.702Z,55.43
2022-11-12T07:59:58.243Z,56.80
2022-11-12T08:04:59.846Z,55.22
2022-11-12T08:10:01.392Z,53.83
2022-11-12T08:15:03.939Z,52.39
2022-11-12T08:20:06.380Z,56.80
2022-11-12T08:25:08.865Z,57.55
2022-11-12T08:30:11.231Z,56.04
2022-11-12T08:35:12.922Z,56.54
2022-11-12T08:40:14.507Z,53.22
2022-11-12T08:45:16.086Z,54.97
2022-11-12T08:50:17.638Z,55.21
2022-11-12T08:55:19.292Z,58.21
2022-11-12T09:00:21.338Z,53.97
2022-11-12T09:05:22.935Z,56.54
2022-11-12T09:10:25.175Z,58.12
2022-11-12T09:15:42.464Z,58.78
2022-11-12T09:20:44.299Z,58.06
2022-11-12T09:25:45.983Z,56.38
2022-11-12T09:30:49.531Z,53.90
2022-11-12T09:35:55.061Z,57.76
2022-11-12T09:41:15.038Z,55.02
2022-11-12T09:46:28.383Z,54.71
2022-11-12T09:51:41.433Z,54.77
2022-11-12T09:56:43.028Z,52.94
2022-11-12T10:01:56.879Z,53.25
2022-11-12T10:07:15.901Z,51.92
2022-11-12T10:13:10.552Z,51.38
2022-11-12T10:18:54.691Z,50.90
2022-11-12T10:23:57.954Z,56.19
2022-11-12T10:29:11.917Z,52.30
2022-11-12T10:34:13.406Z,51.78
2022-11-12T10:39:38.011Z,53.23
2022-11-12T10:44:40.967Z,52.44
2022-11-12T10:49:42.539Z,51.74
2022-11-12T10:54:44.121Z,50.62
2022-11-12T10:59:45.736Z,50.40
2022-11-12T11:06:13.967Z,60.32
2022-11-12T11:11:20.280Z,64.52
2022-11-12T11:16:27.493Z,60.37
2022-11-12T11:21:58.620Z,62.87
2022-11-12T11:27:21.668Z,60.86
2022-11-12T11:32:52.172Z,63.50
2022-11-12T11:38:12.404Z,60.09
2022-11-12T11:43:32.549Z,57.85
2022-11-12T11:48:43.256Z,56.74
2022-11-12T11:54:21.951Z,58.40
2022-11-12T12:00:01.073Z,60.10
2022-11-12T12:05:24.303Z,59.17
2022-11-12T12:11:08.904Z,57.24
2022-11-12T12:16:21.023Z,59.08
2022-11-12T12:21:26.035Z,57.65
2022-11-12T12:26:41.864Z,58.01
2022-11-12T12:32:19.311Z,59.28
2022-11-12T12:37:39.584Z,59.89
2022-11-12T12:42:52.525Z,59.19
2022-11-12T12:47:55.471Z,57.16
2022-11-12T12:53:05.800Z,56.74
2022-11-12T12:58:22.554Z,56.82
2022-11-12T13:03:42.626Z,58.49
2022-11-12T13:08:44.477Z,58.98
2022-11-12T13:13:46.113Z,55.96
2022-11-12T13:18:50.693Z,56.64
2022-11-12T13:24:07.273Z,54.98
2022-11-12T13:29:27.374Z,56.57
2022-11-12T13:34:33.604Z,56.15
2022-11-12T13:39:36.357Z,60.37
2022-11-12T13:44:38.211Z,58.91
2022-11-12T13:49:39.960Z,60.16
2022-11-12T13:54:42.313Z,57.97
2022-11-12T13:59:46.507Z,56.38
2022-11-12T14:04:48.532Z,58.74
2022-11-12T14:10:00.302Z,56.92
2022-11-12T14:15:26.651Z,58.88
2022-11-12T14:20:40.137Z,59.68
2022-11-12T14:25:48.792Z,59.22
2022-11-12T14:30:50.602Z,56.74
2022-11-12T14:35:55.914Z,56.66
2022-11-12T14:41:11.561Z,58.53
2022-11-12T14:46:37.695Z,60.40
2022-11-12T14:51:47.980Z,61.06
2022-11-12T14:56:49.719Z,59.73
2022-11-12T15:02:29.474Z,60.09
2022-11-12T15:07:34.136Z,58.64
2022-11-12T15:12:35.823Z,59.26
2022-11-12T15:17:38.116Z,57.83
2022-11-12T15:22:39.898Z,58.49
2022-11-12T15:27:42.860Z,57.88
2022-11-12T15:32:45.430Z,57.22
2022-11-12T15:37:47.068Z,57.26
2022-11-12T15:42:48.818Z,58.33
2022-11-12T15:47:50.398Z,56.16
2022-11-12T15:52:52.259Z,56.96
2022-11-12T15:57:53.983Z,59.05
2022-11-12T16:03:05.438Z,57.14
2022-11-12T16:08:07.582Z,57.67
2022-11-12T16:13:31.205Z,58.00
2022-11-12T16:18:32.995Z,59.15
2022-11-12T16:23:34.742Z,57.63
2022-11-12T16:28:36.515Z,57.40
2022-11-12T16:33:38.187Z,55.96
2022-11-12T16:38:39.756Z,60.31
2022-11-12T16:43:41.378Z,56.47
2022-11-12T16:48:43.110Z,56.93
2022-11-12T16:53:45.260Z,57.34
2022-11-12T16:58:48.536Z,55.18
2022-11-12T17:03:51.399Z,56.32
2022-11-12T17:08:55.919Z,58.35
2022-11-12T17:13:57.585Z,57.54
2022-11-12T17:19:01.968Z,55.33
2022-11-12T17:24:03.816Z,56.30
2022-11-12T17:29:08.223Z,59.34
2022-11-12T17:34:10.382Z,57.62
2022-11-12T17:39:13.216Z,56.95
2022-11-12T17:44:17.303Z,58.42
2022-11-12T17:49:19.318Z,56.74
2022-11-12T17:54:21.462Z,58.20
2022-11-12T17:59:23.131Z,59.36
2022-11-12T18:04:26.621Z,60.40
2022-11-12T18:09:31.605Z,59.72
2022-11-12T18:14:33.163Z,57.41
2022-11-12T18:19:34.717Z,55.36
2022-11-12T18:24:36.527Z,59.60
2022-11-12T18:29:40.305Z,58.22
2022-11-12T18:34:45.084Z,57.29
2022-11-12T18:39:46.728Z,56.58
2022-11-12T18:44:48.371Z,57.83
2022-11-12T18:49:50.092Z,57.79
2022-11-12T18:54:51.690Z,57.53
2022-11-12T18:59:55.087Z,57.06
2022-11-12T19:04:56.710Z,59.74
2022-11-12T19:09:58.306Z,59.17
2022-11-12T19:14:59.945Z,60.16
2022-11-12T19:20:01.542Z,61.46
2022-11-12T19:25:03.792Z,59.81
2022-11-12T19:30:06.956Z,57.91
2022-11-12T19:35:09.089Z,58.97
2022-11-12T19:40:11.696Z,58.70
2022-11-12T19:45:13.427Z,61.80
2022-11-12T19:50:15.088Z,60.62
2022-11-12T19:55:16.692Z,60.75
2022-11-12T20:00:18.532Z,60.10
2022-11-12T20:05:20.137Z,60.67
2022-11-12T20:10:22.132Z,59.23
2022-11-12T20:15:23.789Z,60.21
2022-11-12T20:20:25.375Z,61.15
2022-11-12T20:25:26.982Z,58.31
2022-11-12T20:30:28.571Z,61.24
2022-11-12T20:35:30.288Z,60.73
2022-11-12T20:40:32.452Z,58.82
2022-11-12T20:45:35.219Z,59.35
2022-11-12T20:50:37.003Z,60.39
2022-11-12T20:55:39.385Z,59.33
2022-11-12T21:00:41.012Z,60.35
2022-11-12T21:05:42.781Z,58.97
2022-11-12T21:10:49.004Z,62.71
2022-11-12T21:15:51.763Z,61.31
2022-11-12T21:21:01.554Z,59.05
2022-11-12T21:26:09.987Z,60.68
2022-11-12T21:31:18.264Z,59.97
2022-11-12T21:36:20.846Z,60.59
2022-11-12T21:41:24.878Z,56.22
2022-11-12T21:46:29.212Z,56.27
2022-11-12T21:51:33.556Z,57.76
2022-11-12T21:56:35.424Z,58.00
2022-11-12T22:01:37.122Z,58.54
2022-11-12T22:06:38.945Z,59.77
2022-11-12T22:11:40.811Z,57.71
2022-11-12T22:16:42.517Z,58.84
2022-11-12T22:21:44.704Z,59.96
2022-11-12T22:26:46.324Z,58.75
2022-11-12T22:31:48.128Z,56.86
2022-11-12T22:36:49.841Z,59.01
2022-11-12T22:41:51.433Z,60.63
2022-11-12T22:46:53.156Z,58.94
2022-11-12T22:51:55.906Z,59.39
2022-11-12T22:56:58.586Z,60.27
2022-11-12T23:02:00.251Z,57.99
2022-11-12T23:07:02.080Z,57.05
2022-11-12T23:12:04.101Z,58.32
2022-11-12T23:17:05.695Z,59.36
2022-11-12T23:22:08.243Z,59.41
2022-11-12T23:27:10.000Z,58.08
2022-11-12T23:32:12.092Z,58.88
2022-11-12T23:37:13.813Z,59.53
2022-11-12T23:42:15.506Z,58.46
2022-11-12T23:47:17.230Z,58.46
2022-11-12T23:52:19.174Z,57.48
2022-11-12T23:57:20.875Z,57.24
